UDYZ/EVN METAR and TAF weather

Enter ICAO airport designator
Station Type Date Time Source
UDYZ METAR 2019/02/23 00:30 UTC NOAA

UDYZ 230030Z 06004KT 9999 NSC M01/M08 Q1021 R09/010070 NOSIG


Station Type Date Time Source
UDYZ Decoded METAR 2019/02/23 00:30 UTC NOAA

Station name not available
Feb 22, 2019 - 07:30 PM EST / 2019.02.23 0030 UTC
Wind: from the ENE (060 degrees) at 5 MPH (4 KT):0
Visibility: greater than 7 mile(s):0
Temperature: 30 F (-1 C)
Windchill: 24 F (-4 C):1
Dew Point: 17 F (-8 C)
Relative Humidity: 58%
Pressure (altimeter): 30.15 in. Hg (1021 hPa)
ob: UDYZ 230030Z 06004KT 9999 NSC M01/M08 Q1021 R09/010070 NOSIG
cycle: 0

Station Type Date Time Source
UDYZ TAF 2019/02/22 18:00 UTC NOAA

TAF UDYZ 221707Z 2218/2318 04006KT CAVOK
TEMPO 2218/2224 04020KT


Example: see airport list